アスンシオン の空港の天気 - METARとTAF

シルビオ・ペッティロッシ国際空港 ( SGAS / ASU ) - パラグアイ アスンシオン
飛行場実況気象(Metar)
観測時間09/25 16:00 PYT (09/25 20:00 UTC)
風向・風速北東 5m/s
視程10km以上
天気現象
全天の4割程度の雲 雲底高度 460m
全天の8割程度の雲 雲底高度 2440m
気温21℃
湿度78%
気圧1011hPa
METARSGAS 252000Z 05009KT 9999 SCT015 BKN080 21/17 Q1011
過去の天気等 Google飛行場航空写真 Wunderground天気予報

過去48時間のMETAR

飛行場予報(TAF)
発表時間: 9/25 12:45 PYT (9/25 16:45 UTC)
予報対象時間: 25日14時 PYT ~ 26日14時 PYT
風向・風速北東 5m/s
視程10km以上
全天の8割程度の雲 雲底高度 820m
25日15時 PYT ~ 25日18時 PYT に 確率 30% で一時的に
視程9000m
天気現象弱い雨
全天の8割程度の雲 雲底高度 610m
全天を覆う雲 雲底高度 1010m
25日20時 PYT ~ 25日23時 PYT に徐々に
風向・風速不定 3m/s
視程10km以上
全天の8割程度の雲 雲底高度 820m
26日5時 PYT ~ 29日8時 PYT に徐々に
視程10km以上
全天の4割程度の雲 雲底高度 300m
全天の8割程度の雲 雲底高度 1010m
TAF SGAS 251645Z 2518/2618 05010KT 9999 BKN027 TX22/2519Z TN15/2610Z
PROB30 TEMPO 2519/2522 9000 -RA BKN020 OVC033
BECMG 2600/2603 VRB05KT 9999 BKN027
BECMG 2609/2912 9999 SCT010 BKN033